createdAt,value
2023-03-27T00:32:39.751Z,4.90
2023-03-27T00:35:14.779Z,4.88
2023-03-27T00:38:30.158Z,4.89
2023-03-27T00:41:00.941Z,4.89
2023-03-27T00:43:53.845Z,4.90
2023-03-27T00:46:39.145Z,4.90
2023-03-27T02:13:06.324Z,4.29
2023-03-27T02:16:31.458Z,4.31
2023-03-27T02:48:55.800Z,4.26
2023-03-27T02:52:19.267Z,4.24
2023-03-27T03:02:16.427Z,4.12
2023-03-27T03:08:49.587Z,4.11
2023-03-27T03:18:36.747Z,4.05
2023-03-27T03:21:25.173Z,4.08
2023-03-27T03:24:08.990Z,4.07
2023-03-27T03:26:39.704Z,4.07
2023-03-27T03:29:12.971Z,4.06
2023-03-27T03:31:44.482Z,4.04
2023-03-27T03:34:16.529Z,4.02
2023-03-27T03:36:49.424Z,4.00
2023-03-27T03:39:23.917Z,3.99
2023-03-27T03:42:22.940Z,3.98
2023-03-27T03:45:04.245Z,3.97
2023-03-27T03:48:18.010Z,3.95
2023-03-27T03:50:46.738Z,3.95
2023-03-27T03:53:16.310Z,3.95
2023-03-27T03:55:46.583Z,3.93
2023-03-27T03:58:19.953Z,3.90
2023-03-27T04:00:50.541Z,3.87
2023-03-27T04:03:18.819Z,3.83
2023-03-27T04:05:52.575Z,3.80
2023-03-27T04:08:20.446Z,3.72
2023-03-27T04:10:48.664Z,3.64
2023-03-27T04:13:16.954Z,3.56
2023-03-27T04:15:45.105Z,3.48
2023-03-27T04:18:15.103Z,3.41
2023-03-27T04:20:43.239Z,3.34
2023-03-27T04:23:11.374Z,3.26
2023-03-27T04:25:41.165Z,3.20
2023-03-27T04:28:10.487Z,3.13
2023-03-27T04:30:38.833Z,3.09
2023-03-27T04:33:07.480Z,3.05
2023-03-27T04:36:05.622Z,3.01
2023-03-27T04:38:37.164Z,2.95
2023-03-27T04:41:06.224Z,2.93
2023-03-27T04:43:40.225Z,2.88
2023-03-27T04:46:11.721Z,2.83
2023-03-27T04:48:52.844Z,2.77
2023-03-27T04:51:21.167Z,2.75
2023-03-27T04:54:14.902Z,2.73
2023-03-27T04:56:43.114Z,2.72
2023-03-27T04:59:12.028Z,2.72
2023-03-27T05:02:13.262Z,2.72
2023-03-27T05:04:44.558Z,2.71
2023-03-27T05:07:15.330Z,2.73
2023-03-27T05:10:33.733Z,2.74
2023-03-27T05:13:02.485Z,2.72
2023-03-27T05:16:18.495Z,2.68
2023-03-27T05:18:47.551Z,2.65
2023-03-27T05:22:05.849Z,2.61
2023-03-27T05:24:43.029Z,2.51
2023-03-27T05:27:19.005Z,2.46
2023-03-27T05:29:50.701Z,2.43
2023-03-27T05:32:21.723Z,2.39
2023-03-27T05:34:51.006Z,2.36
2023-03-27T05:37:19.318Z,2.33
2023-03-27T05:39:47.907Z,2.28
2023-03-27T05:42:16.188Z,2.24
2023-03-27T05:44:44.463Z,2.21
2023-03-27T05:47:14.588Z,2.19
2023-03-27T05:49:43.889Z,2.16
2023-03-27T05:52:12.571Z,2.14
2023-03-27T05:54:40.846Z,2.13
2023-03-27T05:57:09.200Z,2.10
2023-03-27T05:59:37.810Z,2.08
2023-03-27T06:02:08.860Z,2.08
2023-03-27T06:04:44.861Z,2.07
2023-03-27T06:07:15.208Z,2.06
2023-03-27T06:09:45.772Z,2.08
2023-03-27T06:12:19.881Z,2.11
2023-03-27T06:14:56.072Z,2.12
2023-03-27T06:17:27.143Z,2.17
2023-03-27T06:19:59.849Z,2.23
2023-03-27T06:22:30.834Z,2.31
2023-03-27T06:24:58.981Z,2.56
2023-03-27T06:27:29.570Z,2.83
2023-03-27T06:29:57.947Z,3.11
2023-03-27T06:32:27.656Z,3.78
2023-03-27T06:34:55.640Z,4.72
2023-03-27T06:37:25.178Z,5.53
2023-03-27T06:39:54.931Z,6.30
2023-03-27T06:42:22.951Z,6.98
2023-03-27T06:44:51.085Z,7.49
2023-03-27T06:47:19.204Z,7.88
2023-03-27T06:49:47.986Z,8.10
2023-03-27T06:52:16.848Z,8.32
2023-03-27T06:54:44.794Z,8.86
2023-03-27T06:57:12.844Z,8.97
2023-03-27T06:59:40.992Z,8.98
2023-03-27T07:02:11.196Z,9.19
2023-03-27T07:04:39.366Z,9.41
2023-03-27T07:07:07.355Z,9.28
2023-03-27T07:09:44.107Z,8.93
2023-03-27T07:12:12.857Z,8.43
2023-03-27T07:14:40.693Z,8.13
2023-03-27T07:17:09.617Z,8.00
2023-03-27T07:19:40.866Z,7.76
2023-03-27T07:22:08.813Z,7.18
2023-03-27T07:24:36.549Z,6.84
2023-03-27T07:27:04.417Z,6.73
2023-03-27T07:29:33.143Z,6.73
2023-03-27T07:32:04.502Z,6.94
2023-03-27T07:34:35.902Z,7.69
2023-03-27T07:37:03.789Z,8.46
2023-03-27T07:39:32.286Z,9.12
2023-03-27T07:42:03.957Z,9.70
2023-03-27T07:44:32.025Z,10.15
2023-03-27T07:47:01.091Z,10.55
2023-03-27T07:49:39.416Z,10.88
2023-03-27T07:52:20.262Z,10.61
2023-03-27T07:54:51.641Z,9.85
2023-03-27T07:57:20.200Z,9.17
2023-03-27T07:59:48.710Z,8.76
2023-03-27T08:02:17.442Z,8.39
2023-03-27T08:04:46.307Z,7.94
2023-03-27T08:07:15.077Z,7.59
2023-03-27T08:09:48.557Z,7.38
2023-03-27T08:12:20.628Z,7.13
2023-03-27T08:14:49.128Z,6.92
2023-03-27T08:17:19.382Z,6.78
2023-03-27T08:19:49.862Z,6.64
2023-03-27T08:22:22.748Z,6.54
2023-03-27T08:24:58.873Z,6.46
2023-03-27T08:27:27.670Z,6.43
2023-03-27T08:29:56.197Z,6.41
2023-03-27T08:32:24.362Z,6.53
2023-03-27T08:34:53.488Z,6.58
2023-03-27T08:37:24.007Z,6.65
2023-03-27T08:39:52.385Z,6.70
2023-03-27T08:42:23.178Z,6.79
2023-03-27T08:44:54.945Z,6.81
2023-03-27T08:47:27.969Z,6.84
2023-03-27T08:50:52.493Z,6.92
2023-03-27T08:53:41.121Z,6.98
2023-03-27T08:56:16.042Z,7.12
2023-03-27T08:58:44.835Z,7.23
2023-03-27T09:01:51.481Z,7.32
2023-03-27T09:04:48.682Z,7.34
2023-03-27T09:07:24.493Z,7.36
2023-03-27T09:10:15.734Z,7.43
2023-03-27T09:12:56.940Z,7.39
2023-03-27T09:15:29.119Z,7.35
2023-03-27T09:18:22.889Z,7.32
2023-03-27T09:20:52.732Z,7.35
2023-03-27T09:23:27.210Z,7.49
2023-03-27T09:25:57.928Z,7.57
2023-03-27T09:28:31.593Z,7.70
2023-03-27T09:31:18.738Z,7.80
2023-03-27T09:33:47.703Z,7.89
2023-03-27T09:36:17.425Z,7.99
2023-03-27T09:38:50.792Z,8.16
2023-03-27T09:41:22.266Z,8.33
2023-03-27T09:44:08.934Z,8.49
2023-03-27T09:46:37.912Z,8.64
2023-03-27T09:49:11.928Z,8.71
2023-03-27T09:51:42.146Z,8.59
2023-03-27T09:54:14.567Z,8.41
2023-03-27T09:56:47.123Z,8.27
2023-03-27T09:59:24.452Z,8.28
2023-03-27T10:02:21.750Z,8.29
2023-03-27T10:04:59.751Z,8.33
2023-03-27T10:07:30.011Z,8.48
2023-03-27T10:10:15.891Z,8.69
2023-03-27T10:12:45.876Z,8.88
2023-03-27T10:15:27.373Z,8.98
2023-03-27T10:17:56.682Z,9.08
2023-03-27T10:20:25.478Z,9.19
2023-03-27T10:22:55.654Z,9.22
2023-03-27T10:25:30.483Z,9.32
2023-03-27T10:28:09.602Z,9.46
2023-03-27T10:30:38.284Z,9.41
2023-03-27T10:33:07.564Z,9.42
2023-03-27T10:35:40.916Z,9.35
2023-03-27T10:38:14.348Z,9.45
2023-03-27T10:40:43.977Z,9.61
2023-03-27T10:43:31.206Z,9.67
2023-03-27T10:46:01.267Z,9.87
2023-03-27T10:48:38.357Z,10.09
2023-03-27T10:51:08.740Z,10.32
2023-03-27T10:53:43.589Z,10.58
2023-03-27T10:56:17.183Z,10.89
2023-03-27T10:58:45.111Z,11.19
2023-03-27T11:01:26.613Z,11.49
2023-03-27T11:04:03.781Z,11.58
2023-03-27T11:06:34.260Z,11.54
2023-03-27T11:09:17.543Z,11.56
2023-03-27T11:11:49.558Z,11.57
2023-03-27T11:14:24.533Z,11.57
2023-03-27T11:17:05.007Z,11.60
2023-03-27T11:19:41.286Z,11.63
2023-03-27T11:22:14.812Z,11.59
2023-03-27T11:24:50.145Z,11.49
2023-03-27T11:27:42.814Z,11.51
2023-03-27T11:30:10.989Z,11.51
2023-03-27T11:32:39.474Z,11.52
2023-03-27T11:35:12.612Z,11.54
2023-03-27T11:38:00.141Z,11.60
2023-03-27T11:40:35.298Z,11.74
2023-03-27T11:43:05.285Z,11.88
2023-03-27T11:46:17.040Z,12.10
2023-03-27T11:49:04.339Z,11.96
2023-03-27T11:51:45.174Z,11.79
2023-03-27T11:54:21.579Z,11.73
2023-03-27T11:56:54.516Z,11.73
2023-03-27T11:59:54.933Z,11.79
2023-03-27T12:02:26.004Z,11.98
2023-03-27T12:04:57.937Z,12.24
2023-03-27T12:07:47.430Z,12.25
2023-03-27T12:10:16.289Z,12.14
2023-03-27T12:12:47.147Z,11.95
2023-03-27T12:15:43.196Z,11.96
2023-03-27T12:18:36.080Z,12.19
2023-03-27T12:21:13.805Z,12.48
2023-03-27T12:23:51.719Z,12.63
2023-03-27T12:26:31.876Z,12.62
2023-03-27T12:28:59.877Z,12.34
2023-03-27T12:31:49.895Z,12.15
2023-03-27T12:34:43.739Z,12.00
2023-03-27T12:37:14.014Z,11.89
2023-03-27T12:40:10.763Z,11.77
2023-03-27T12:42:43.933Z,11.76
2023-03-27T12:45:19.526Z,11.83
2023-03-27T12:48:18.805Z,11.91
2023-03-27T12:50:58.175Z,11.75
2023-03-27T12:56:31.140Z,12.14
2023-03-27T12:59:01.653Z,12.21
2023-03-27T13:01:52.638Z,12.15
2023-03-27T13:04:28.025Z,12.16
2023-03-27T13:07:02.434Z,12.31
2023-03-27T13:09:49.351Z,12.51
2023-03-27T13:12:46.316Z,12.58
2023-03-27T13:15:35.492Z,12.49
2023-03-27T13:18:25.877Z,12.64
2023-03-27T13:20:57.369Z,12.76
2023-03-27T13:23:43.630Z,12.59
2023-03-27T13:26:14.668Z,12.56
2023-03-27T13:28:50.058Z,12.59
2023-03-27T13:31:40.320Z,12.62
2023-03-27T13:34:28.889Z,12.61
2023-03-27T13:37:09.818Z,12.35
2023-03-27T13:40:10.330Z,12.16
2023-03-27T13:42:44.038Z,12.13
2023-03-27T13:45:16.216Z,12.13
2023-03-27T13:48:09.929Z,12.21
2023-03-27T13:50:47.406Z,12.27
2023-03-27T13:53:48.621Z,12.11
2023-03-27T13:56:56.007Z,11.88
2023-03-27T13:59:32.503Z,11.67
2023-03-27T14:02:22.792Z,11.49
2023-03-27T14:04:58.037Z,11.61
2023-03-27T14:07:54.569Z,11.83
2023-03-27T14:10:48.930Z,12.04
2023-03-27T14:13:58.526Z,12.18
2023-03-27T14:16:39.804Z,12.10
2023-03-27T14:19:17.036Z,12.07
2023-03-27T14:21:53.714Z,12.04
2023-03-27T14:34:51.127Z,12.51
2023-03-27T14:35:58.536Z,12.56
2023-03-27T14:38:46.031Z,12.50
2023-03-27T14:48:33.339Z,12.57
2023-03-27T14:51:06.009Z,12.73
2023-03-27T14:54:03.641Z,12.84
2023-03-27T14:56:48.442Z,12.64
2023-03-27T14:59:22.334Z,12.52
2023-03-27T15:01:52.678Z,12.31
2023-03-27T15:08:29.232Z,12.07
2023-03-27T15:11:07.840Z,12.06
2023-03-27T15:16:58.313Z,12.09
2023-03-27T15:19:29.538Z,12.32
2023-03-27T15:22:02.794Z,12.76
2023-03-27T15:24:46.640Z,13.19
2023-03-27T15:27:21.581Z,13.67
2023-03-27T15:29:57.865Z,14.12
2023-03-27T15:32:32.419Z,14.45
2023-03-27T15:35:04.896Z,14.51
2023-03-27T15:37:58.171Z,14.32
2023-03-27T15:40:35.068Z,14.05
2023-03-27T15:43:05.754Z,13.76
2023-03-27T15:46:01.465Z,13.47
2023-03-27T15:48:30.016Z,13.12
2023-03-27T15:51:09.857Z,12.95
2023-03-27T15:54:03.479Z,12.80
2023-03-27T15:56:34.897Z,12.71
2023-03-27T15:59:06.125Z,12.49
2023-03-27T16:01:56.628Z,12.37
2023-03-27T16:04:36.247Z,12.29
2023-03-27T16:07:09.681Z,12.13
2023-03-27T16:09:57.324Z,12.00
2023-03-27T16:12:30.379Z,11.94
2023-03-27T16:15:00.966Z,11.88
2023-03-27T16:18:02.487Z,11.87
2023-03-27T16:20:33.757Z,11.74
2023-03-27T16:23:05.530Z,11.67
2023-03-27T16:25:54.931Z,11.83
2023-03-27T16:28:25.234Z,11.93
2023-03-27T16:30:56.523Z,12.21
2023-03-27T16:33:25.661Z,12.53
2023-03-27T16:35:57.495Z,12.75
2023-03-27T16:38:26.096Z,12.94
2023-03-27T16:44:47.838Z,12.93
2023-03-27T16:47:18.073Z,12.74
2023-03-27T16:50:09.847Z,12.67
2023-03-27T16:52:39.607Z,12.52
2023-03-27T16:55:10.663Z,12.41
2023-03-27T16:58:25.525Z,12.28
2023-03-27T17:00:57.106Z,12.21
2023-03-27T17:07:07.711Z,12.31
2023-03-27T17:10:02.138Z,12.30
2023-03-27T17:12:39.762Z,12.34
2023-03-27T17:15:18.823Z,12.33
2023-03-27T17:18:27.214Z,12.22
2023-03-27T17:28:23.788Z,11.73
2023-03-27T17:31:03.836Z,11.54
2023-03-27T17:33:37.166Z,11.42
2023-03-27T17:36:33.019Z,11.32
2023-03-27T17:45:54.875Z,10.64
2023-03-27T17:52:52.503Z,10.26
2023-03-27T17:55:25.598Z,10.15
2023-03-27T17:58:44.869Z,10.02
2023-03-27T18:04:23.097Z,9.83
2023-03-27T18:07:05.302Z,9.77
2023-03-27T18:10:03.264Z,9.66
2023-03-27T18:12:47.929Z,9.55
2023-03-27T18:16:16.018Z,9.46
2023-03-27T18:23:20.463Z,9.21
2023-03-27T18:36:24.248Z,8.58
2023-03-27T18:39:02.138Z,8.47
2023-03-27T18:41:34.016Z,8.38
2023-03-27T18:44:03.199Z,8.32
2023-03-27T18:46:38.107Z,8.24
2023-03-27T18:54:25.072Z,8.01
2023-03-27T18:56:30.659Z,7.89
2023-03-27T18:59:11.555Z,7.79
2023-03-27T19:01:52.126Z,7.68
2023-03-27T19:04:32.746Z,7.57
2023-03-27T19:07:08.680Z,7.46
2023-03-27T19:10:06.110Z,7.37
2023-03-27T19:12:57.927Z,7.29
2023-03-27T19:15:59.620Z,7.20
2023-03-27T19:18:56.441Z,7.09
2023-03-27T19:22:17.365Z,7.01
2023-03-27T19:25:10.879Z,6.92
2023-03-27T19:27:39.424Z,6.87
2023-03-27T19:30:36.851Z,6.81
2023-03-27T19:36:27.627Z,6.69
2023-03-27T19:42:00.840Z,6.60
2023-03-27T19:44:59.760Z,6.56
2023-03-27T19:47:33.493Z,6.51
2023-03-27T19:50:08.497Z,6.46
2023-03-27T19:52:36.681Z,6.43
2023-03-27T19:55:06.535Z,6.39
2023-03-27T20:00:36.160Z,6.30
2023-03-27T20:03:04.663Z,6.24
2023-03-27T20:05:32.879Z,6.20
2023-03-27T20:08:01.146Z,6.16
2023-03-27T20:10:29.261Z,6.11
2023-03-27T20:13:02.124Z,6.06
2023-03-27T20:15:32.536Z,6.00
2023-03-27T20:18:01.198Z,5.96
2023-03-27T20:20:29.934Z,5.92
2023-03-27T20:23:14.702Z,5.88
2023-03-27T20:25:51.679Z,5.83
2023-03-27T20:28:19.777Z,5.79
2023-03-27T20:30:50.481Z,5.75
2023-03-27T20:33:18.346Z,5.72
2023-03-27T20:35:47.054Z,5.69
2023-03-27T20:38:15.082Z,5.67
2023-03-27T20:40:53.245Z,5.66
2023-03-27T20:43:23.104Z,5.66
2023-03-27T20:45:55.015Z,5.66
2023-03-27T20:48:23.129Z,5.66
2023-03-27T20:50:55.928Z,5.67
2023-03-27T20:53:33.914Z,5.67
2023-03-27T20:56:06.463Z,5.68
2023-03-27T20:58:39.174Z,5.69
2023-03-27T21:01:12.058Z,5.70
2023-03-27T21:03:49.879Z,5.71
2023-03-27T21:06:26.013Z,5.72
2023-03-27T21:08:53.965Z,5.71
2023-03-27T21:11:32.140Z,5.70
2023-03-27T21:14:05.129Z,5.70
2023-03-27T21:16:38.189Z,5.69
2023-03-27T21:19:12.200Z,5.67
2023-03-27T21:21:43.188Z,5.65
2023-03-27T21:24:24.142Z,5.63
2023-03-27T21:27:00.272Z,5.59
2023-03-27T21:29:29.296Z,5.56
2023-03-27T21:32:12.950Z,5.53
2023-03-27T21:34:41.651Z,5.49
2023-03-27T21:37:09.979Z,5.46
2023-03-27T21:39:55.271Z,5.42
2023-03-27T21:42:23.543Z,5.41
2023-03-27T21:44:57.269Z,5.39
2023-03-27T21:47:40.750Z,5.37
2023-03-27T21:50:19.393Z,5.35
2023-03-27T21:52:55.145Z,5.34
2023-03-27T21:55:32.216Z,5.32
2023-03-27T21:58:00.363Z,5.30
2023-03-27T22:00:30.622Z,5.28
2023-03-27T22:03:07.259Z,5.26
2023-03-27T22:05:38.242Z,5.25
2023-03-27T22:08:25.206Z,5.24
2023-03-27T22:11:02.267Z,5.23
2023-03-27T22:13:51.946Z,5.21
2023-03-27T22:16:29.659Z,5.20
2023-03-27T22:18:58.028Z,5.19
2023-03-27T22:21:27.978Z,5.16
2023-03-27T22:23:56.730Z,5.14
2023-03-27T22:26:34.168Z,5.12
2023-03-27T22:29:02.269Z,5.11
2023-03-27T22:31:35.585Z,5.10
2023-03-27T22:34:09.663Z,5.12
2023-03-27T22:36:40.493Z,5.12
2023-03-27T22:39:30.126Z,5.12
2023-03-27T22:42:21.483Z,5.10
2023-03-27T22:45:19.361Z,5.11
2023-03-27T22:47:52.361Z,5.12
2023-03-27T22:50:35.179Z,5.13
2023-03-27T22:53:47.880Z,5.13
2023-03-27T22:56:21.367Z,5.13
2023-03-27T22:58:58.360Z,5.11
2023-03-27T23:01:30.276Z,5.10
2023-03-27T23:03:59.449Z,5.09
2023-03-27T23:06:28.720Z,5.08
2023-03-27T23:08:57.513Z,5.07
2023-03-27T23:17:52.924Z,5.04
2023-03-27T23:20:34.903Z,5.04
2023-03-27T23:26:15.582Z,5.03
2023-03-27T23:28:47.719Z,5.03
2023-03-27T23:31:21.948Z,5.01
2023-03-27T23:36:43.817Z,5.01
2023-03-27T23:39:12.340Z,5.01
2023-03-27T23:41:42.081Z,5.01
2023-03-27T23:44:10.814Z,5.01
2023-03-27T23:46:39.213Z,5.01
2023-03-27T23:49:10.699Z,5.00
2023-03-27T23:51:39.634Z,5.00
2023-03-27T23:54:07.810Z,5.00
2023-03-27T23:56:44.087Z,4.99
2023-03-27T23:59:19.645Z,4.98
